sensor_id;sensor_type;location;lat;lon;timestamp;P1;durP1;ratioP1;P2;durP2;ratioP2
70312;SDS011;57723;51.698;5.344;2023-05-07T00:00:07;10.05;;;6.40;;
70312;SDS011;57723;51.698;5.344;2023-05-07T00:02:33;9.77;;;6.13;;
70312;SDS011;57723;51.698;5.344;2023-05-07T00:04:58;9.53;;;6.53;;
70312;SDS011;57723;51.698;5.344;2023-05-07T00:07:23;10.03;;;5.73;;
70312;SDS011;57723;51.698;5.344;2023-05-07T00:09:49;9.70;;;5.97;;
70312;SDS011;57723;51.698;5.344;2023-05-07T00:12:14;11.50;;;6.27;;
70312;SDS011;57723;51.698;5.344;2023-05-07T00:14:40;8.97;;;5.70;;
70312;SDS011;57723;51.698;5.344;2023-05-07T00:17:05;11.30;;;5.78;;
70312;SDS011;57723;51.698;5.344;2023-05-07T00:19:31;10.00;;;6.23;;
70312;SDS011;57723;51.698;5.344;2023-05-07T00:21:56;9.60;;;5.77;;
70312;SDS011;57723;51.698;5.344;2023-05-07T00:24:22;9.82;;;5.95;;
70312;SDS011;57723;51.698;5.344;2023-05-07T00:26:47;10.87;;;5.90;;
70312;SDS011;57723;51.698;5.344;2023-05-07T00:29:12;8.50;;;5.57;;
70312;SDS011;57723;51.698;5.344;2023-05-07T00:31:37;9.30;;;5.80;;
70312;SDS011;57723;51.698;5.344;2023-05-07T00:34:03;9.30;;;5.50;;
70312;SDS011;57723;51.698;5.344;2023-05-07T00:36:28;9.03;;;5.50;;
70312;SDS011;57723;51.698;5.344;2023-05-07T00:38:54;9.73;;;5.50;;
70312;SDS011;57723;51.698;5.344;2023-05-07T00:41:20;9.25;;;5.60;;
70312;SDS011;57723;51.698;5.344;2023-05-07T00:43:45;8.40;;;5.30;;
70312;SDS011;57723;51.698;5.344;2023-05-07T00:46:10;7.97;;;5.17;;
70312;SDS011;57723;51.698;5.344;2023-05-07T00:48:37;8.88;;;5.20;;
70312;SDS011;57723;51.698;5.344;2023-05-07T00:51:02;8.93;;;5.63;;
70312;SDS011;57723;51.698;5.344;2023-05-07T00:53:27;8.10;;;5.17;;
70312;SDS011;57723;51.698;5.344;2023-05-07T00:55:53;9.20;;;5.30;;
70312;SDS011;57723;51.698;5.344;2023-05-07T00:58:18;8.57;;;5.20;;
70312;SDS011;57723;51.698;5.344;2023-05-07T01:00:44;8.73;;;5.30;;
70312;SDS011;57723;51.698;5.344;2023-05-07T01:03:10;8.10;;;4.73;;
70312;SDS011;57723;51.698;5.344;2023-05-07T01:05:35;8.00;;;4.40;;
70312;SDS011;57723;51.698;5.344;2023-05-07T01:08:04;6.80;;;4.50;;
70312;SDS011;57723;51.698;5.344;2023-05-07T01:10:33;7.07;;;4.53;;
70312;SDS011;57723;51.698;5.344;2023-05-07T01:12:58;7.30;;;4.28;;
70312;SDS011;57723;51.698;5.344;2023-05-07T01:15:24;5.97;;;4.10;;
70312;SDS011;57723;51.698;5.344;2023-05-07T01:17:49;6.70;;;4.60;;
70312;SDS011;57723;51.698;5.344;2023-05-07T01:20:15;6.97;;;4.40;;
70312;SDS011;57723;51.698;5.344;2023-05-07T01:22:40;7.27;;;4.23;;
70312;SDS011;57723;51.698;5.344;2023-05-07T01:25:07;6.85;;;4.15;;
70312;SDS011;57723;51.698;5.344;2023-05-07T01:27:33;8.40;;;3.90;;
70312;SDS011;57723;51.698;5.344;2023-05-07T01:29:59;6.07;;;3.78;;
70312;SDS011;57723;51.698;5.344;2023-05-07T01:32:29;6.83;;;4.33;;
70312;SDS011;57723;51.698;5.344;2023-05-07T01:34:55;6.20;;;3.97;;
70312;SDS011;57723;51.698;5.344;2023-05-07T01:37:20;5.72;;;3.45;;
70312;SDS011;57723;51.698;5.344;2023-05-07T01:39:46;5.30;;;3.60;;
70312;SDS011;57723;51.698;5.344;2023-05-07T01:42:11;7.80;;;3.80;;
70312;SDS011;57723;51.698;5.344;2023-05-07T01:44:37;5.97;;;3.87;;
70312;SDS011;57723;51.698;5.344;2023-05-07T01:47:05;5.53;;;3.60;;
70312;SDS011;57723;51.698;5.344;2023-05-07T01:49:31;6.22;;;3.80;;
70312;SDS011;57723;51.698;5.344;2023-05-07T01:51:56;6.17;;;3.80;;
70312;SDS011;57723;51.698;5.344;2023-05-07T01:54:25;6.27;;;3.70;;
70312;SDS011;57723;51.698;5.344;2023-05-07T01:56:52;6.13;;;3.75;;
70312;SDS011;57723;51.698;5.344;2023-05-07T01:59:18;5.90;;;3.63;;
70312;SDS011;57723;51.698;5.344;2023-05-07T02:01:45;6.27;;;3.53;;
70312;SDS011;57723;51.698;5.344;2023-05-07T02:04:12;6.15;;;3.80;;
70312;SDS011;57723;51.698;5.344;2023-05-07T02:06:37;6.13;;;3.63;;
70312;SDS011;57723;51.698;5.344;2023-05-07T02:09:03;6.37;;;3.60;;
70312;SDS011;57723;51.698;5.344;2023-05-07T02:11:28;5.80;;;3.60;;
70312;SDS011;57723;51.698;5.344;2023-05-07T02:13:53;5.33;;;3.50;;
70312;SDS011;57723;51.698;5.344;2023-05-07T02:16:18;5.23;;;3.37;;
70312;SDS011;57723;51.698;5.344;2023-05-07T02:18:44;5.43;;;3.30;;
70312;SDS011;57723;51.698;5.344;2023-05-07T02:21:10;5.83;;;3.63;;
70312;SDS011;57723;51.698;5.344;2023-05-07T02:23:35;5.23;;;3.20;;
70312;SDS011;57723;51.698;5.344;2023-05-07T02:26:00;5.23;;;3.10;;
70312;SDS011;57723;51.698;5.344;2023-05-07T02:28:26;5.40;;;3.00;;
70312;SDS011;57723;51.698;5.344;2023-05-07T02:30:51;5.50;;;3.20;;
70312;SDS011;57723;51.698;5.344;2023-05-07T02:33:16;6.47;;;3.30;;
70312;SDS011;57723;51.698;5.344;2023-05-07T02:35:41;5.60;;;3.20;;
70312;SDS011;57723;51.698;5.344;2023-05-07T02:38:07;4.77;;;3.03;;
70312;SDS011;57723;51.698;5.344;2023-05-07T02:40:32;4.73;;;2.93;;
70312;SDS011;57723;51.698;5.344;2023-05-07T02:42:58;6.07;;;3.25;;
70312;SDS011;57723;51.698;5.344;2023-05-07T02:45:24;4.97;;;3.20;;
70312;SDS011;57723;51.698;5.344;2023-05-07T02:47:49;5.23;;;3.10;;
70312;SDS011;57723;51.698;5.344;2023-05-07T02:50:14;6.37;;;3.60;;
70312;SDS011;57723;51.698;5.344;2023-05-07T02:52:40;4.97;;;3.15;;
70312;SDS011;57723;51.698;5.344;2023-05-07T02:55:05;7.00;;;3.30;;
70312;SDS011;57723;51.698;5.344;2023-05-07T02:57:30;4.50;;;3.00;;
70312;SDS011;57723;51.698;5.344;2023-05-07T02:59:57;4.33;;;3.03;;
70312;SDS011;57723;51.698;5.344;2023-05-07T03:02:23;4.60;;;2.95;;
70312;SDS011;57723;51.698;5.344;2023-05-07T03:04:48;4.67;;;2.90;;
70312;SDS011;57723;51.698;5.344;2023-05-07T03:07:13;5.00;;;2.90;;
70312;SDS011;57723;51.698;5.344;2023-05-07T03:09:39;5.07;;;3.20;;
70312;SDS011;57723;51.698;5.344;2023-05-07T03:12:04;4.75;;;2.88;;
70312;SDS011;57723;51.698;5.344;2023-05-07T03:14:30;4.53;;;2.80;;
70312;SDS011;57723;51.698;5.344;2023-05-07T03:16:55;5.47;;;2.80;;
70312;SDS011;57723;51.698;5.344;2023-05-07T03:19:20;4.87;;;2.90;;
70312;SDS011;57723;51.698;5.344;2023-05-07T03:21:46;4.73;;;3.10;;
70312;SDS011;57723;51.698;5.344;2023-05-07T03:24:11;5.93;;;2.93;;
70312;SDS011;57723;51.698;5.344;2023-05-07T03:26:36;5.13;;;3.23;;
70312;SDS011;57723;51.698;5.344;2023-05-07T03:29:01;4.17;;;2.80;;
70312;SDS011;57723;51.698;5.344;2023-05-07T03:31:27;4.97;;;2.63;;
70312;SDS011;57723;51.698;5.344;2023-05-07T03:33:53;4.75;;;2.90;;
70312;SDS011;57723;51.698;5.344;2023-05-07T03:36:19;4.25;;;2.78;;
70312;SDS011;57723;51.698;5.344;2023-05-07T03:38:44;4.20;;;2.70;;
70312;SDS011;57723;51.698;5.344;2023-05-07T03:41:09;4.90;;;2.90;;
70312;SDS011;57723;51.698;5.344;2023-05-07T03:43:35;4.90;;;2.67;;
70312;SDS011;57723;51.698;5.344;2023-05-07T03:46:00;4.63;;;2.73;;
70312;SDS011;57723;51.698;5.344;2023-05-07T03:48:25;5.10;;;2.80;;
70312;SDS011;57723;51.698;5.344;2023-05-07T03:50:51;5.73;;;2.87;;
70312;SDS011;57723;51.698;5.344;2023-05-07T03:53:16;5.63;;;3.20;;
70312;SDS011;57723;51.698;5.344;2023-05-07T03:55:41;6.20;;;3.20;;
70312;SDS011;57723;51.698;5.344;2023-05-07T03:58:07;5.20;;;3.10;;
70312;SDS011;57723;51.698;5.344;2023-05-07T04:00:32;6.07;;;2.80;;
70312;SDS011;57723;51.698;5.344;2023-05-07T04:03:02;4.55;;;2.90;;
70312;SDS011;57723;51.698;5.344;2023-05-07T04:05:28;6.32;;;3.00;;
70312;SDS011;57723;51.698;5.344;2023-05-07T04:07:53;6.33;;;2.90;;
70312;SDS011;57723;51.698;5.344;2023-05-07T04:10:24;6.10;;;2.83;;
70312;SDS011;57723;51.698;5.344;2023-05-07T04:12:50;4.63;;;2.60;;
70312;SDS011;57723;51.698;5.344;2023-05-07T04:15:15;4.70;;;2.60;;
70312;SDS011;57723;51.698;5.344;2023-05-07T04:17:40;5.17;;;2.60;;
70312;SDS011;57723;51.698;5.344;2023-05-07T04:20:08;4.85;;;2.75;;
70312;SDS011;57723;51.698;5.344;2023-05-07T04:22:33;4.22;;;2.70;;
70312;SDS011;57723;51.698;5.344;2023-05-07T04:24:59;4.37;;;2.87;;
70312;SDS011;57723;51.698;5.344;2023-05-07T04:27:25;4.63;;;2.88;;
70312;SDS011;57723;51.698;5.344;2023-05-07T04:29:51;4.13;;;2.90;;
70312;SDS011;57723;51.698;5.344;2023-05-07T04:32:16;4.17;;;2.63;;
70312;SDS011;57723;51.698;5.344;2023-05-07T04:34:42;4.95;;;2.65;;
70312;SDS011;57723;51.698;5.344;2023-05-07T04:37:08;4.07;;;2.60;;
70312;SDS011;57723;51.698;5.344;2023-05-07T04:39:33;4.15;;;2.60;;
70312;SDS011;57723;51.698;5.344;2023-05-07T04:42:00;3.93;;;2.40;;
70312;SDS011;57723;51.698;5.344;2023-05-07T04:44:25;3.85;;;2.40;;
70312;SDS011;57723;51.698;5.344;2023-05-07T04:46:50;4.50;;;2.60;;
70312;SDS011;57723;51.698;5.344;2023-05-07T04:49:16;4.10;;;2.27;;
70312;SDS011;57723;51.698;5.344;2023-05-07T04:51:41;4.13;;;2.77;;
70312;SDS011;57723;51.698;5.344;2023-05-07T04:54:07;4.47;;;3.10;;
70312;SDS011;57723;51.698;5.344;2023-05-07T04:56:33;4.60;;;3.10;;
70312;SDS011;57723;51.698;5.344;2023-05-07T04:58:58;6.40;;;3.30;;
70312;SDS011;57723;51.698;5.344;2023-05-07T05:01:23;5.00;;;2.80;;
70312;SDS011;57723;51.698;5.344;2023-05-07T05:03:48;4.18;;;2.53;;
70312;SDS011;57723;51.698;5.344;2023-05-07T05:06:14;5.13;;;2.90;;
70312;SDS011;57723;51.698;5.344;2023-05-07T05:08:39;5.03;;;2.43;;
70312;SDS011;57723;51.698;5.344;2023-05-07T05:11:05;5.07;;;2.70;;
70312;SDS011;57723;51.698;5.344;2023-05-07T05:13:30;4.90;;;2.73;;
70312;SDS011;57723;51.698;5.344;2023-05-07T05:15:55;4.77;;;2.60;;
70312;SDS011;57723;51.698;5.344;2023-05-07T05:18:20;4.00;;;2.60;;
70312;SDS011;57723;51.698;5.344;2023-05-07T05:20:46;4.50;;;2.47;;
70312;SDS011;57723;51.698;5.344;2023-05-07T05:23:11;4.03;;;2.63;;
70312;SDS011;57723;51.698;5.344;2023-05-07T05:25:37;6.20;;;2.60;;
70312;SDS011;57723;51.698;5.344;2023-05-07T05:28:04;3.75;;;2.40;;
70312;SDS011;57723;51.698;5.344;2023-05-07T05:30:29;4.43;;;2.70;;
70312;SDS011;57723;51.698;5.344;2023-05-07T05:32:55;3.97;;;2.40;;
70312;SDS011;57723;51.698;5.344;2023-05-07T05:35:20;4.13;;;2.47;;
70312;SDS011;57723;51.698;5.344;2023-05-07T05:37:46;4.33;;;2.77;;
70312;SDS011;57723;51.698;5.344;2023-05-07T05:40:11;5.30;;;2.60;;
70312;SDS011;57723;51.698;5.344;2023-05-07T05:42:37;6.50;;;3.00;;
70312;SDS011;57723;51.698;5.344;2023-05-07T05:45:02;5.10;;;2.53;;
70312;SDS011;57723;51.698;5.344;2023-05-07T05:47:27;6.37;;;2.87;;
70312;SDS011;57723;51.698;5.344;2023-05-07T05:49:53;4.63;;;2.90;;
70312;SDS011;57723;51.698;5.344;2023-05-07T05:52:18;5.27;;;2.90;;
70312;SDS011;57723;51.698;5.344;2023-05-07T05:54:43;4.70;;;2.80;;
70312;SDS011;57723;51.698;5.344;2023-05-07T05:57:08;7.05;;;3.20;;
70312;SDS011;57723;51.698;5.344;2023-05-07T05:59:34;5.20;;;3.13;;
70312;SDS011;57723;51.698;5.344;2023-05-07T06:02:00;5.27;;;2.87;;
70312;SDS011;57723;51.698;5.344;2023-05-07T06:04:25;5.10;;;3.08;;
70312;SDS011;57723;51.698;5.344;2023-05-07T06:06:50;4.97;;;3.20;;
70312;SDS011;57723;51.698;5.344;2023-05-07T06:09:16;6.27;;;3.40;;
70312;SDS011;57723;51.698;5.344;2023-05-07T06:11:41;5.27;;;3.10;;
70312;SDS011;57723;51.698;5.344;2023-05-07T06:14:06;13.17;;;2.97;;
70312;SDS011;57723;51.698;5.344;2023-05-07T06:16:31;8.10;;;3.17;;
70312;SDS011;57723;51.698;5.344;2023-05-07T06:18:57;7.10;;;3.27;;
70312;SDS011;57723;51.698;5.344;2023-05-07T06:21:22;7.50;;;3.40;;
70312;SDS011;57723;51.698;5.344;2023-05-07T06:23:48;4.53;;;3.00;;
70312;SDS011;57723;51.698;5.344;2023-05-07T06:26:22;5.25;;;3.25;;
70312;SDS011;57723;51.698;5.344;2023-05-07T06:28:51;5.43;;;3.27;;
70312;SDS011;57723;51.698;5.344;2023-05-07T06:31:28;5.35;;;3.42;;
70312;SDS011;57723;51.698;5.344;2023-05-07T06:33:54;5.78;;;3.70;;
70312;SDS011;57723;51.698;5.344;2023-05-07T06:36:20;6.80;;;3.30;;
70312;SDS011;57723;51.698;5.344;2023-05-07T06:38:48;7.07;;;3.80;;
70312;SDS011;57723;51.698;5.344;2023-05-07T06:41:14;5.45;;;3.20;;
70312;SDS011;57723;51.698;5.344;2023-05-07T06:43:39;6.97;;;3.83;;
70312;SDS011;57723;51.698;5.344;2023-05-07T06:46:07;6.13;;;3.87;;
70312;SDS011;57723;51.698;5.344;2023-05-07T06:48:33;7.65;;;3.95;;
70312;SDS011;57723;51.698;5.344;2023-05-07T06:50:58;8.00;;;4.13;;
70312;SDS011;57723;51.698;5.344;2023-05-07T06:53:24;9.48;;;4.35;;
70312;SDS011;57723;51.698;5.344;2023-05-07T06:55:49;6.20;;;4.10;;
70312;SDS011;57723;51.698;5.344;2023-05-07T06:58:15;8.35;;;4.20;;
70312;SDS011;57723;51.698;5.344;2023-05-07T07:00:40;9.00;;;3.73;;
70312;SDS011;57723;51.698;5.344;2023-05-07T07:03:06;9.00;;;4.20;;
70312;SDS011;57723;51.698;5.344;2023-05-07T07:05:31;8.75;;;4.00;;
70312;SDS011;57723;51.698;5.344;2023-05-07T07:07:57;6.27;;;3.90;;
70312;SDS011;57723;51.698;5.344;2023-05-07T07:10:22;9.67;;;4.90;;
70312;SDS011;57723;51.698;5.344;2023-05-07T07:12:48;8.57;;;4.63;;
70312;SDS011;57723;51.698;5.344;2023-05-07T07:15:14;6.53;;;4.07;;
70312;SDS011;57723;51.698;5.344;2023-05-07T07:17:40;8.33;;;4.50;;
70312;SDS011;57723;51.698;5.344;2023-05-07T07:20:05;7.15;;;4.20;;
70312;SDS011;57723;51.698;5.344;2023-05-07T07:22:31;7.63;;;4.63;;
70312;SDS011;57723;51.698;5.344;2023-05-07T07:24:57;9.57;;;4.60;;
70312;SDS011;57723;51.698;5.344;2023-05-07T07:27:23;8.20;;;4.70;;
70312;SDS011;57723;51.698;5.344;2023-05-07T07:29:48;9.73;;;4.60;;
70312;SDS011;57723;51.698;5.344;2023-05-07T07:32:13;7.40;;;4.25;;
70312;SDS011;57723;51.698;5.344;2023-05-07T07:34:39;7.47;;;4.23;;
70312;SDS011;57723;51.698;5.344;2023-05-07T07:37:04;7.10;;;4.70;;
70312;SDS011;57723;51.698;5.344;2023-05-07T07:39:34;7.15;;;4.70;;
70312;SDS011;57723;51.698;5.344;2023-05-07T07:42:00;7.55;;;4.60;;
70312;SDS011;57723;51.698;5.344;2023-05-07T07:44:26;7.10;;;4.30;;
70312;SDS011;57723;51.698;5.344;2023-05-07T07:46:51;7.57;;;4.17;;
70312;SDS011;57723;51.698;5.344;2023-05-07T07:49:16;8.63;;;4.20;;
70312;SDS011;57723;51.698;5.344;2023-05-07T07:51:45;6.53;;;4.10;;
70312;SDS011;57723;51.698;5.344;2023-05-07T07:54:10;6.00;;;4.20;;
70312;SDS011;57723;51.698;5.344;2023-05-07T07:56:38;7.43;;;4.15;;
70312;SDS011;57723;51.698;5.344;2023-05-07T07:59:03;7.63;;;4.17;;
70312;SDS011;57723;51.698;5.344;2023-05-07T08:01:32;8.82;;;4.70;;
70312;SDS011;57723;51.698;5.344;2023-05-07T08:03:57;5.90;;;3.95;;
70312;SDS011;57723;51.698;5.344;2023-05-07T08:06:24;6.00;;;4.00;;
70312;SDS011;57723;51.698;5.344;2023-05-07T08:08:50;7.95;;;3.95;;
70312;SDS011;57723;51.698;5.344;2023-05-07T08:11:15;5.83;;;4.20;;
70312;SDS011;57723;51.698;5.344;2023-05-07T08:13:41;6.60;;;4.07;;
70312;SDS011;57723;51.698;5.344;2023-05-07T08:16:06;6.30;;;4.23;;
70312;SDS011;57723;51.698;5.344;2023-05-07T08:18:31;6.28;;;3.95;;
70312;SDS011;57723;51.698;5.344;2023-05-07T08:20:59;10.20;;;3.63;;
70312;SDS011;57723;51.698;5.344;2023-05-07T08:23:24;8.38;;;3.75;;
70312;SDS011;57723;51.698;5.344;2023-05-07T08:25:53;7.90;;;4.70;;
70312;SDS011;57723;51.698;5.344;2023-05-07T08:28:18;9.38;;;5.30;;
70312;SDS011;57723;51.698;5.344;2023-05-07T08:30:44;12.30;;;4.50;;
70312;SDS011;57723;51.698;5.344;2023-05-07T08:33:10;6.88;;;4.10;;
70312;SDS011;57723;51.698;5.344;2023-05-07T08:35:35;9.97;;;5.40;;
70312;SDS011;57723;51.698;5.344;2023-05-07T08:38:00;7.77;;;4.57;;
70312;SDS011;57723;51.698;5.344;2023-05-07T08:40:26;6.97;;;4.00;;
70312;SDS011;57723;51.698;5.344;2023-05-07T08:42:54;8.30;;;5.10;;
70312;SDS011;57723;51.698;5.344;2023-05-07T08:45:22;10.63;;;5.32;;
70312;SDS011;57723;51.698;5.344;2023-05-07T08:47:49;8.13;;;4.60;;
70312;SDS011;57723;51.698;5.344;2023-05-07T08:50:19;7.65;;;4.10;;
70312;SDS011;57723;51.698;5.344;2023-05-07T08:52:45;8.10;;;4.53;;
70312;SDS011;57723;51.698;5.344;2023-05-07T08:55:10;9.17;;;4.03;;
70312;SDS011;57723;51.698;5.344;2023-05-07T08:57:36;5.30;;;3.70;;
70312;SDS011;57723;51.698;5.344;2023-05-07T09:00:03;5.05;;;3.45;;
70312;SDS011;57723;51.698;5.344;2023-05-07T09:02:29;5.55;;;3.50;;
70312;SDS011;57723;51.698;5.344;2023-05-07T09:04:55;5.90;;;3.80;;
70312;SDS011;57723;51.698;5.344;2023-05-07T09:07:20;5.47;;;3.70;;
70312;SDS011;57723;51.698;5.344;2023-05-07T09:09:46;4.60;;;3.05;;
70312;SDS011;57723;51.698;5.344;2023-05-07T09:12:15;5.33;;;3.27;;
70312;SDS011;57723;51.698;5.344;2023-05-07T09:14:43;5.68;;;3.00;;
70312;SDS011;57723;51.698;5.344;2023-05-07T09:17:09;5.20;;;2.77;;
70312;SDS011;57723;51.698;5.344;2023-05-07T09:19:34;6.57;;;3.10;;
70312;SDS011;57723;51.698;5.344;2023-05-07T09:24:26;5.40;;;3.15;;
70312;SDS011;57723;51.698;5.344;2023-05-07T09:26:58;4.93;;;2.75;;
70312;SDS011;57723;51.698;5.344;2023-05-07T09:29:24;7.23;;;3.53;;
70312;SDS011;57723;51.698;5.344;2023-05-07T09:31:50;6.90;;;3.25;;
70312;SDS011;57723;51.698;5.344;2023-05-07T09:34:15;6.83;;;3.30;;
70312;SDS011;57723;51.698;5.344;2023-05-07T09:36:41;4.93;;;3.22;;
70312;SDS011;57723;51.698;5.344;2023-05-07T09:39:09;6.90;;;3.72;;
70312;SDS011;57723;51.698;5.344;2023-05-07T09:41:42;6.27;;;3.63;;
70312;SDS011;57723;51.698;5.344;2023-05-07T09:44:08;5.03;;;3.00;;
70312;SDS011;57723;51.698;5.344;2023-05-07T09:46:34;5.73;;;3.20;;
70312;SDS011;57723;51.698;5.344;2023-05-07T09:49:01;5.38;;;3.40;;
70312;SDS011;57723;51.698;5.344;2023-05-07T09:51:30;4.90;;;3.25;;
70312;SDS011;57723;51.698;5.344;2023-05-07T09:53:59;6.70;;;3.55;;
70312;SDS011;57723;51.698;5.344;2023-05-07T09:56:27;5.50;;;3.80;;
70312;SDS011;57723;51.698;5.344;2023-05-07T09:58:54;6.32;;;3.80;;
70312;SDS011;57723;51.698;5.344;2023-05-07T10:01:21;6.18;;;3.65;;
70312;SDS011;57723;51.698;5.344;2023-05-07T10:03:47;7.03;;;3.67;;
70312;SDS011;57723;51.698;5.344;2023-05-07T10:06:25;5.80;;;3.45;;
70312;SDS011;57723;51.698;5.344;2023-05-07T10:08:51;5.93;;;3.50;;
70312;SDS011;57723;51.698;5.344;2023-05-07T10:11:17;6.30;;;2.83;;
70312;SDS011;57723;51.698;5.344;2023-05-07T10:13:42;5.53;;;2.90;;
70312;SDS011;57723;51.698;5.344;2023-05-07T10:16:08;5.63;;;2.97;;
70312;SDS011;57723;51.698;5.344;2023-05-07T10:18:34;4.57;;;3.00;;
70312;SDS011;57723;51.698;5.344;2023-05-07T10:21:02;4.93;;;3.03;;
70312;SDS011;57723;51.698;5.344;2023-05-07T10:23:27;5.93;;;3.10;;
70312;SDS011;57723;51.698;5.344;2023-05-07T10:25:53;6.53;;;3.30;;
70312;SDS011;57723;51.698;5.344;2023-05-07T10:28:20;6.07;;;2.90;;
70312;SDS011;57723;51.698;5.344;2023-05-07T10:30:55;4.97;;;2.90;;
70312;SDS011;57723;51.698;5.344;2023-05-07T10:33:26;5.88;;;3.10;;
70312;SDS011;57723;51.698;5.344;2023-05-07T10:35:52;6.50;;;3.58;;
70312;SDS011;57723;51.698;5.344;2023-05-07T10:38:21;6.50;;;3.38;;
70312;SDS011;57723;51.698;5.344;2023-05-07T10:40:50;8.30;;;3.60;;
70312;SDS011;57723;51.698;5.344;2023-05-07T10:43:16;5.82;;;3.28;;
70312;SDS011;57723;51.698;5.344;2023-05-07T10:45:41;5.27;;;3.50;;
70312;SDS011;57723;51.698;5.344;2023-05-07T10:50:33;5.90;;;3.35;;
70312;SDS011;57723;51.698;5.344;2023-05-07T10:55:46;5.20;;;3.20;;
70312;SDS011;57723;51.698;5.344;2023-05-07T11:00:46;5.20;;;2.75;;
70312;SDS011;57723;51.698;5.344;2023-05-07T11:03:12;4.87;;;2.60;;
70312;SDS011;57723;51.698;5.344;2023-05-07T11:05:37;4.73;;;2.83;;
70312;SDS011;57723;51.698;5.344;2023-05-07T11:08:03;4.13;;;2.63;;
70312;SDS011;57723;51.698;5.344;2023-05-07T11:13:15;6.43;;;2.50;;
70312;SDS011;57723;51.698;5.344;2023-05-07T11:15:42;4.63;;;2.67;;
70312;SDS011;57723;51.698;5.344;2023-05-07T11:18:09;3.92;;;2.40;;
70312;SDS011;57723;51.698;5.344;2023-05-07T11:26:06;5.87;;;2.83;;
70312;SDS011;57723;51.698;5.344;2023-05-07T11:28:37;4.85;;;2.67;;
70312;SDS011;57723;51.698;5.344;2023-05-07T11:31:03;5.85;;;4.40;;
70312;SDS011;57723;51.698;5.344;2023-05-07T11:33:29;6.43;;;3.50;;
70312;SDS011;57723;51.698;5.344;2023-05-07T11:35:55;8.07;;;3.90;;
70312;SDS011;57723;51.698;5.344;2023-05-07T11:38:20;6.15;;;3.90;;
70312;SDS011;57723;51.698;5.344;2023-05-07T11:41:07;6.90;;;3.90;;
70312;SDS011;57723;51.698;5.344;2023-05-07T11:43:31;4.85;;;3.10;;
70312;SDS011;57723;51.698;5.344;2023-05-07T11:46:18;8.60;;;3.90;;
70312;SDS011;57723;51.698;5.344;2023-05-07T11:48:43;5.80;;;3.70;;
70312;SDS011;57723;51.698;5.344;2023-05-07T11:51:08;7.10;;;3.80;;
70312;SDS011;57723;51.698;5.344;2023-05-07T11:53:35;7.23;;;4.63;;
70312;SDS011;57723;51.698;5.344;2023-05-07T11:56:05;7.43;;;4.93;;
70312;SDS011;57723;51.698;5.344;2023-05-07T11:58:30;7.03;;;4.85;;
70312;SDS011;57723;51.698;5.344;2023-05-07T12:00:56;7.20;;;4.37;;
70312;SDS011;57723;51.698;5.344;2023-05-07T12:03:21;8.30;;;5.27;;
70312;SDS011;57723;51.698;5.344;2023-05-07T12:05:47;6.88;;;4.70;;
70312;SDS011;57723;51.698;5.344;2023-05-07T12:08:16;6.10;;;4.33;;
70312;SDS011;57723;51.698;5.344;2023-05-07T12:10:42;6.65;;;4.45;;
70312;SDS011;57723;51.698;5.344;2023-05-07T12:13:14;5.90;;;4.10;;
70312;SDS011;57723;51.698;5.344;2023-05-07T12:15:44;5.57;;;3.60;;
70312;SDS011;57723;51.698;5.344;2023-05-07T12:18:10;7.10;;;4.05;;
70312;SDS011;57723;51.698;5.344;2023-05-07T12:20:39;6.75;;;3.83;;
70312;SDS011;57723;51.698;5.344;2023-05-07T12:23:04;6.30;;;4.18;;
70312;SDS011;57723;51.698;5.344;2023-05-07T12:25:39;6.55;;;4.10;;
70312;SDS011;57723;51.698;5.344;2023-05-07T12:28:05;6.93;;;3.90;;
70312;SDS011;57723;51.698;5.344;2023-05-07T12:30:36;5.20;;;3.83;;
70312;SDS011;57723;51.698;5.344;2023-05-07T12:33:02;6.47;;;4.35;;
70312;SDS011;57723;51.698;5.344;2023-05-07T12:35:28;7.90;;;4.00;;
70312;SDS011;57723;51.698;5.344;2023-05-07T12:38:00;5.55;;;3.75;;
70312;SDS011;57723;51.698;5.344;2023-05-07T12:40:35;10.18;;;3.10;;
70312;SDS011;57723;51.698;5.344;2023-05-07T12:43:01;6.10;;;2.90;;
70312;SDS011;57723;51.698;5.344;2023-05-07T12:45:26;8.05;;;3.50;;
70312;SDS011;57723;51.698;5.344;2023-05-07T12:47:52;5.53;;;3.40;;
70312;SDS011;57723;51.698;5.344;2023-05-07T12:50:17;5.97;;;3.80;;
70312;SDS011;57723;51.698;5.344;2023-05-07T12:52:43;6.10;;;3.57;;
70312;SDS011;57723;51.698;5.344;2023-05-07T12:55:09;6.65;;;3.92;;
70312;SDS011;57723;51.698;5.344;2023-05-07T12:57:40;7.10;;;3.77;;
70312;SDS011;57723;51.698;5.344;2023-05-07T13:00:06;5.87;;;3.30;;
70312;SDS011;57723;51.698;5.344;2023-05-07T13:02:34;5.97;;;3.17;;
70312;SDS011;57723;51.698;5.344;2023-05-07T13:05:00;6.63;;;2.75;;
70312;SDS011;57723;51.698;5.344;2023-05-07T13:07:26;4.63;;;2.90;;
70312;SDS011;57723;51.698;5.344;2023-05-07T13:09:51;6.37;;;3.00;;
70312;SDS011;57723;51.698;5.344;2023-05-07T13:12:16;4.37;;;2.87;;
70312;SDS011;57723;51.698;5.344;2023-05-07T13:14:42;4.63;;;2.80;;
70312;SDS011;57723;51.698;5.344;2023-05-07T13:17:07;5.40;;;3.50;;
70312;SDS011;57723;51.698;5.344;2023-05-07T13:19:32;6.93;;;4.00;;
70312;SDS011;57723;51.698;5.344;2023-05-07T13:21:58;5.13;;;3.70;;
70312;SDS011;57723;51.698;5.344;2023-05-07T13:24:24;6.07;;;3.10;;
70312;SDS011;57723;51.698;5.344;2023-05-07T13:26:49;5.25;;;2.90;;
70312;SDS011;57723;51.698;5.344;2023-05-07T13:29:15;4.93;;;2.60;;
70312;SDS011;57723;51.698;5.344;2023-05-07T13:31:40;4.83;;;2.70;;
70312;SDS011;57723;51.698;5.344;2023-05-07T13:34:11;6.10;;;2.43;;
70312;SDS011;57723;51.698;5.344;2023-05-07T13:36:40;4.05;;;2.50;;
70312;SDS011;57723;51.698;5.344;2023-05-07T13:39:06;6.57;;;2.58;;
70312;SDS011;57723;51.698;5.344;2023-05-07T13:41:32;6.27;;;2.40;;
70312;SDS011;57723;51.698;5.344;2023-05-07T13:43:57;5.33;;;2.43;;
70312;SDS011;57723;51.698;5.344;2023-05-07T13:46:22;3.70;;;1.97;;
70312;SDS011;57723;51.698;5.344;2023-05-07T13:48:48;7.53;;;2.33;;
70312;SDS011;57723;51.698;5.344;2023-05-07T13:51:13;4.53;;;2.40;;
70312;SDS011;57723;51.698;5.344;2023-05-07T13:53:38;4.40;;;1.92;;
70312;SDS011;57723;51.698;5.344;2023-05-07T13:56:04;5.03;;;2.00;;
70312;SDS011;57723;51.698;5.344;2023-05-07T13:58:30;4.13;;;2.00;;
70312;SDS011;57723;51.698;5.344;2023-05-07T14:00:55;4.85;;;2.60;;
70312;SDS011;57723;51.698;5.344;2023-05-07T14:03:21;6.20;;;2.90;;
70312;SDS011;57723;51.698;5.344;2023-05-07T14:05:52;4.53;;;2.92;;
70312;SDS011;57723;51.698;5.344;2023-05-07T14:08:17;4.87;;;2.60;;
70312;SDS011;57723;51.698;5.344;2023-05-07T14:10:44;5.60;;;3.30;;
70312;SDS011;57723;51.698;5.344;2023-05-07T14:13:11;6.82;;;3.28;;
70312;SDS011;57723;51.698;5.344;2023-05-07T14:15:36;8.43;;;3.93;;
70312;SDS011;57723;51.698;5.344;2023-05-07T14:18:02;4.90;;;2.90;;
70312;SDS011;57723;51.698;5.344;2023-05-07T14:20:28;6.35;;;3.50;;
70312;SDS011;57723;51.698;5.344;2023-05-07T14:22:53;5.40;;;3.40;;
70312;SDS011;57723;51.698;5.344;2023-05-07T14:25:19;7.28;;;3.47;;
70312;SDS011;57723;51.698;5.344;2023-05-07T14:27:44;6.93;;;3.83;;
70312;SDS011;57723;51.698;5.344;2023-05-07T14:30:12;7.80;;;3.47;;
70312;SDS011;57723;51.698;5.344;2023-05-07T14:32:37;6.18;;;3.40;;
70312;SDS011;57723;51.698;5.344;2023-05-07T14:35:03;5.33;;;3.30;;
70312;SDS011;57723;51.698;5.344;2023-05-07T14:37:28;7.20;;;3.50;;
70312;SDS011;57723;51.698;5.344;2023-05-07T14:39:56;9.07;;;3.30;;
70312;SDS011;57723;51.698;5.344;2023-05-07T14:42:21;9.13;;;3.40;;
70312;SDS011;57723;51.698;5.344;2023-05-07T14:44:46;5.67;;;2.90;;
70312;SDS011;57723;51.698;5.344;2023-05-07T14:47:13;5.30;;;2.70;;
70312;SDS011;57723;51.698;5.344;2023-05-07T14:49:39;5.37;;;2.83;;
70312;SDS011;57723;51.698;5.344;2023-05-07T14:52:05;5.78;;;2.33;;
70312;SDS011;57723;51.698;5.344;2023-05-07T14:54:35;5.05;;;2.53;;
70312;SDS011;57723;51.698;5.344;2023-05-07T14:57:02;4.43;;;2.40;;
70312;SDS011;57723;51.698;5.344;2023-05-07T14:59:28;4.73;;;2.37;;